sensor_id;sensor_type;location;lat;lon;timestamp;P1;durP1;ratioP1;P2;durP2;ratioP2
72087;SDS011;59961;50.232;8.616;2022-07-03T00:00:17;2.60;;;1.55;;
72087;SDS011;59961;50.232;8.616;2022-07-03T00:02:42;4.67;;;1.70;;
72087;SDS011;59961;50.232;8.616;2022-07-03T00:05:08;3.47;;;1.60;;
72087;SDS011;59961;50.232;8.616;2022-07-03T00:07:33;2.93;;;1.53;;
72087;SDS011;59961;50.232;8.616;2022-07-03T00:09:58;4.30;;;1.70;;
72087;SDS011;59961;50.232;8.616;2022-07-03T00:12:23;3.57;;;1.50;;
72087;SDS011;59961;50.232;8.616;2022-07-03T00:14:49;3.50;;;1.40;;
72087;SDS011;59961;50.232;8.616;2022-07-03T00:17:15;3.22;;;1.50;;
72087;SDS011;59961;50.232;8.616;2022-07-03T00:19:41;3.95;;;1.38;;
72087;SDS011;59961;50.232;8.616;2022-07-03T00:22:06;3.07;;;1.50;;
72087;SDS011;59961;50.232;8.616;2022-07-03T00:24:43;3.33;;;1.40;;
72087;SDS011;59961;50.232;8.616;2022-07-03T00:27:10;3.40;;;1.55;;
72087;SDS011;59961;50.232;8.616;2022-07-03T00:29:39;3.50;;;1.47;;
72087;SDS011;59961;50.232;8.616;2022-07-03T00:32:10;1.70;;;1.10;;
72087;SDS011;59961;50.232;8.616;2022-07-03T00:34:36;2.67;;;1.50;;
72087;SDS011;59961;50.232;8.616;2022-07-03T00:37:02;2.60;;;1.40;;
72087;SDS011;59961;50.232;8.616;2022-07-03T00:39:28;3.08;;;1.48;;
72087;SDS011;59961;50.232;8.616;2022-07-03T00:42:00;3.20;;;1.50;;
72087;SDS011;59961;50.232;8.616;2022-07-03T00:44:26;2.05;;;1.27;;
72087;SDS011;59961;50.232;8.616;2022-07-03T00:46:53;2.75;;;1.48;;
72087;SDS011;59961;50.232;8.616;2022-07-03T00:49:19;2.75;;;1.70;;
72087;SDS011;59961;50.232;8.616;2022-07-03T00:51:45;2.23;;;1.40;;
72087;SDS011;59961;50.232;8.616;2022-07-03T00:54:14;2.72;;;1.52;;
72087;SDS011;59961;50.232;8.616;2022-07-03T00:56:41;2.78;;;1.65;;
72087;SDS011;59961;50.232;8.616;2022-07-03T00:59:11;3.13;;;1.27;;
72087;SDS011;59961;50.232;8.616;2022-07-03T01:01:37;2.50;;;1.40;;
72087;SDS011;59961;50.232;8.616;2022-07-03T01:06:29;4.63;;;1.70;;
72087;SDS011;59961;50.232;8.616;2022-07-03T01:08:57;2.88;;;1.40;;
72087;SDS011;59961;50.232;8.616;2022-07-03T01:11:28;4.20;;;1.55;;
72087;SDS011;59961;50.232;8.616;2022-07-03T01:16:25;3.00;;;1.23;;
72087;SDS011;59961;50.232;8.616;2022-07-03T01:18:53;2.53;;;1.27;;
72087;SDS011;59961;50.232;8.616;2022-07-03T01:21:35;4.38;;;1.63;;
72087;SDS011;59961;50.232;8.616;2022-07-03T01:26:30;2.47;;;1.52;;
72087;SDS011;59961;50.232;8.616;2022-07-03T01:28:56;2.63;;;1.40;;
72087;SDS011;59961;50.232;8.616;2022-07-03T01:31:23;2.50;;;1.10;;
72087;SDS011;59961;50.232;8.616;2022-07-03T01:33:50;2.83;;;1.20;;
72087;SDS011;59961;50.232;8.616;2022-07-03T01:36:15;3.42;;;1.30;;
72087;SDS011;59961;50.232;8.616;2022-07-03T01:38:42;3.78;;;1.67;;
72087;SDS011;59961;50.232;8.616;2022-07-03T01:41:08;4.00;;;1.47;;
72087;SDS011;59961;50.232;8.616;2022-07-03T01:43:36;5.50;;;1.80;;
72087;SDS011;59961;50.232;8.616;2022-07-03T01:46:02;2.97;;;1.50;;
72087;SDS011;59961;50.232;8.616;2022-07-03T01:48:28;5.88;;;1.70;;
72087;SDS011;59961;50.232;8.616;2022-07-03T01:50:54;2.35;;;1.58;;
72087;SDS011;59961;50.232;8.616;2022-07-03T01:53:20;3.05;;;1.60;;
72087;SDS011;59961;50.232;8.616;2022-07-03T01:55:45;3.07;;;1.63;;
72087;SDS011;59961;50.232;8.616;2022-07-03T01:58:11;3.03;;;1.60;;
72087;SDS011;59961;50.232;8.616;2022-07-03T02:00:40;3.07;;;1.43;;
72087;SDS011;59961;50.232;8.616;2022-07-03T02:03:05;3.23;;;1.63;;
72087;SDS011;59961;50.232;8.616;2022-07-03T02:05:44;3.45;;;1.50;;
72087;SDS011;59961;50.232;8.616;2022-07-03T02:10:51;4.30;;;1.50;;
72087;SDS011;59961;50.232;8.616;2022-07-03T02:13:22;3.25;;;1.50;;
72087;SDS011;59961;50.232;8.616;2022-07-03T02:15:49;2.38;;;1.30;;
72087;SDS011;59961;50.232;8.616;2022-07-03T02:20:41;3.50;;;1.65;;
72087;SDS011;59961;50.232;8.616;2022-07-03T02:23:09;4.70;;;1.50;;
72087;SDS011;59961;50.232;8.616;2022-07-03T02:25:36;2.97;;;1.50;;
72087;SDS011;59961;50.232;8.616;2022-07-03T02:30:27;2.83;;;1.40;;
72087;SDS011;59961;50.232;8.616;2022-07-03T02:32:53;2.80;;;1.23;;
72087;SDS011;59961;50.232;8.616;2022-07-03T02:35:25;3.47;;;1.50;;
72087;SDS011;59961;50.232;8.616;2022-07-03T02:38:36;2.47;;;1.40;;
72087;SDS011;59961;50.232;8.616;2022-07-03T02:40:42;3.33;;;1.50;;
72087;SDS011;59961;50.232;8.616;2022-07-03T02:43:24;2.85;;;1.40;;
72087;SDS011;59961;50.232;8.616;2022-07-03T02:46:01;2.83;;;1.50;;
72087;SDS011;59961;50.232;8.616;2022-07-03T02:48:47;4.10;;;1.40;;
72087;SDS011;59961;50.232;8.616;2022-07-03T02:51:17;2.90;;;1.30;;
72087;SDS011;59961;50.232;8.616;2022-07-03T02:53:46;2.13;;;1.27;;
72087;SDS011;59961;50.232;8.616;2022-07-03T02:56:19;2.65;;;1.30;;
72087;SDS011;59961;50.232;8.616;2022-07-03T02:59:04;5.97;;;1.50;;
72087;SDS011;59961;50.232;8.616;2022-07-03T03:04:08;2.45;;;1.38;;
72087;SDS011;59961;50.232;8.616;2022-07-03T03:06:33;5.10;;;1.57;;
72087;SDS011;59961;50.232;8.616;2022-07-03T03:09:02;2.97;;;1.65;;
72087;SDS011;59961;50.232;8.616;2022-07-03T03:11:32;8.18;;;1.65;;
72087;SDS011;59961;50.232;8.616;2022-07-03T03:13:57;3.25;;;1.70;;
72087;SDS011;59961;50.232;8.616;2022-07-03T03:16:25;4.13;;;1.60;;
72087;SDS011;59961;50.232;8.616;2022-07-03T03:18:50;2.97;;;1.47;;
72087;SDS011;59961;50.232;8.616;2022-07-03T03:21:16;4.20;;;1.30;;
72087;SDS011;59961;50.232;8.616;2022-07-03T03:26:07;1.50;;;0.93;;
72087;SDS011;59961;50.232;8.616;2022-07-03T03:28:32;3.07;;;1.70;;
72087;SDS011;59961;50.232;8.616;2022-07-03T03:30:58;2.50;;;1.50;;
72087;SDS011;59961;50.232;8.616;2022-07-03T03:33:23;2.37;;;1.27;;
72087;SDS011;59961;50.232;8.616;2022-07-03T03:35:48;2.70;;;1.60;;
72087;SDS011;59961;50.232;8.616;2022-07-03T03:38:13;2.90;;;1.43;;
72087;SDS011;59961;50.232;8.616;2022-07-03T03:40:39;4.35;;;1.50;;
72087;SDS011;59961;50.232;8.616;2022-07-03T03:43:05;3.47;;;1.50;;
72087;SDS011;59961;50.232;8.616;2022-07-03T03:45:30;2.50;;;1.40;;
72087;SDS011;59961;50.232;8.616;2022-07-03T03:47:55;4.03;;;1.40;;
72087;SDS011;59961;50.232;8.616;2022-07-03T03:50:20;2.13;;;1.47;;
72087;SDS011;59961;50.232;8.616;2022-07-03T03:52:46;3.70;;;1.30;;
72087;SDS011;59961;50.232;8.616;2022-07-03T03:55:11;3.23;;;1.43;;
72087;SDS011;59961;50.232;8.616;2022-07-03T03:57:37;3.30;;;1.77;;
72087;SDS011;59961;50.232;8.616;2022-07-03T04:00:03;4.47;;;1.80;;
72087;SDS011;59961;50.232;8.616;2022-07-03T04:02:28;3.17;;;1.50;;
72087;SDS011;59961;50.232;8.616;2022-07-03T04:04:54;2.57;;;1.20;;
72087;SDS011;59961;50.232;8.616;2022-07-03T04:07:19;3.17;;;1.70;;
72087;SDS011;59961;50.232;8.616;2022-07-03T04:09:44;3.83;;;1.30;;
72087;SDS011;59961;50.232;8.616;2022-07-03T04:12:09;2.70;;;1.40;;
72087;SDS011;59961;50.232;8.616;2022-07-03T04:14:35;2.85;;;1.73;;
72087;SDS011;59961;50.232;8.616;2022-07-03T04:17:00;3.87;;;1.50;;
72087;SDS011;59961;50.232;8.616;2022-07-03T04:19:25;3.40;;;1.50;;
72087;SDS011;59961;50.232;8.616;2022-07-03T04:21:50;2.53;;;1.53;;
72087;SDS011;59961;50.232;8.616;2022-07-03T04:24:16;2.42;;;1.40;;
72087;SDS011;59961;50.232;8.616;2022-07-03T04:26:42;2.23;;;1.30;;
72087;SDS011;59961;50.232;8.616;2022-07-03T04:29:07;2.93;;;1.60;;
72087;SDS011;59961;50.232;8.616;2022-07-03T04:31:32;2.83;;;1.57;;
72087;SDS011;59961;50.232;8.616;2022-07-03T04:33:57;3.03;;;1.60;;
72087;SDS011;59961;50.232;8.616;2022-07-03T04:36:22;2.70;;;1.58;;
72087;SDS011;59961;50.232;8.616;2022-07-03T04:38:47;5.87;;;1.90;;
72087;SDS011;59961;50.232;8.616;2022-07-03T04:41:13;5.97;;;1.67;;
72087;SDS011;59961;50.232;8.616;2022-07-03T04:43:38;3.35;;;1.42;;
72087;SDS011;59961;50.232;8.616;2022-07-03T04:46:03;5.18;;;1.70;;
72087;SDS011;59961;50.232;8.616;2022-07-03T04:48:29;2.90;;;1.50;;
72087;SDS011;59961;50.232;8.616;2022-07-03T04:50:54;3.00;;;1.60;;
72087;SDS011;59961;50.232;8.616;2022-07-03T04:53:19;3.83;;;1.37;;
72087;SDS011;59961;50.232;8.616;2022-07-03T04:55:45;3.17;;;1.60;;
72087;SDS011;59961;50.232;8.616;2022-07-03T04:58:10;2.67;;;1.40;;
72087;SDS011;59961;50.232;8.616;2022-07-03T05:00:35;3.20;;;1.60;;
72087;SDS011;59961;50.232;8.616;2022-07-03T05:03:00;3.70;;;1.80;;
72087;SDS011;59961;50.232;8.616;2022-07-03T05:05:25;3.23;;;1.60;;
72087;SDS011;59961;50.232;8.616;2022-07-03T05:07:50;2.47;;;1.43;;
72087;SDS011;59961;50.232;8.616;2022-07-03T05:10:16;3.78;;;1.90;;
72087;SDS011;59961;50.232;8.616;2022-07-03T05:12:41;3.30;;;1.75;;
72087;SDS011;59961;50.232;8.616;2022-07-03T05:15:06;2.50;;;1.50;;
72087;SDS011;59961;50.232;8.616;2022-07-03T05:17:33;2.40;;;1.30;;
72087;SDS011;59961;50.232;8.616;2022-07-03T05:19:58;3.08;;;1.60;;
72087;SDS011;59961;50.232;8.616;2022-07-03T05:22:42;2.03;;;1.20;;
72087;SDS011;59961;50.232;8.616;2022-07-03T05:25:07;3.55;;;1.40;;
72087;SDS011;59961;50.232;8.616;2022-07-03T05:27:35;1.77;;;1.30;;
72087;SDS011;59961;50.232;8.616;2022-07-03T05:30:00;2.38;;;1.63;;
72087;SDS011;59961;50.232;8.616;2022-07-03T05:32:25;4.93;;;1.73;;
72087;SDS011;59961;50.232;8.616;2022-07-03T05:34:50;3.40;;;1.80;;
72087;SDS011;59961;50.232;8.616;2022-07-03T05:37:15;4.68;;;1.60;;
72087;SDS011;59961;50.232;8.616;2022-07-03T05:39:40;4.15;;;1.60;;
72087;SDS011;59961;50.232;8.616;2022-07-03T05:42:06;3.63;;;1.80;;
72087;SDS011;59961;50.232;8.616;2022-07-03T05:44:31;2.93;;;1.50;;
72087;SDS011;59961;50.232;8.616;2022-07-03T05:46:56;2.78;;;1.80;;
72087;SDS011;59961;50.232;8.616;2022-07-03T05:49:21;3.17;;;1.57;;
72087;SDS011;59961;50.232;8.616;2022-07-03T05:51:46;2.90;;;1.60;;
72087;SDS011;59961;50.232;8.616;2022-07-03T05:54:12;3.50;;;1.80;;
72087;SDS011;59961;50.232;8.616;2022-07-03T05:56:37;2.57;;;1.50;;
72087;SDS011;59961;50.232;8.616;2022-07-03T05:59:02;2.93;;;1.80;;
72087;SDS011;59961;50.232;8.616;2022-07-03T06:01:27;2.77;;;1.67;;
72087;SDS011;59961;50.232;8.616;2022-07-03T06:03:52;3.40;;;1.60;;
72087;SDS011;59961;50.232;8.616;2022-07-03T06:06:18;3.47;;;1.70;;
72087;SDS011;59961;50.232;8.616;2022-07-03T06:08:43;4.20;;;2.00;;
72087;SDS011;59961;50.232;8.616;2022-07-03T06:11:08;5.00;;;2.03;;
72087;SDS011;59961;50.232;8.616;2022-07-03T06:13:33;4.33;;;1.73;;
72087;SDS011;59961;50.232;8.616;2022-07-03T06:15:59;3.83;;;1.73;;
72087;SDS011;59961;50.232;8.616;2022-07-03T06:18:24;3.10;;;1.83;;
72087;SDS011;59961;50.232;8.616;2022-07-03T06:20:49;3.57;;;1.73;;
72087;SDS011;59961;50.232;8.616;2022-07-03T06:23:15;3.93;;;1.80;;
72087;SDS011;59961;50.232;8.616;2022-07-03T06:25:40;7.03;;;1.87;;
72087;SDS011;59961;50.232;8.616;2022-07-03T06:28:05;2.53;;;1.70;;
72087;SDS011;59961;50.232;8.616;2022-07-03T06:30:30;3.80;;;1.33;;
72087;SDS011;59961;50.232;8.616;2022-07-03T06:32:55;2.90;;;1.97;;
72087;SDS011;59961;50.232;8.616;2022-07-03T06:35:20;5.05;;;1.63;;
72087;SDS011;59961;50.232;8.616;2022-07-03T06:37:45;2.47;;;1.50;;
72087;SDS011;59961;50.232;8.616;2022-07-03T06:40:11;4.63;;;1.60;;
72087;SDS011;59961;50.232;8.616;2022-07-03T06:42:36;6.20;;;2.20;;
72087;SDS011;59961;50.232;8.616;2022-07-03T06:45:01;3.60;;;1.63;;
72087;SDS011;59961;50.232;8.616;2022-07-03T06:47:26;6.13;;;1.70;;
72087;SDS011;59961;50.232;8.616;2022-07-03T06:49:51;3.70;;;1.67;;
72087;SDS011;59961;50.232;8.616;2022-07-03T06:52:17;5.10;;;1.90;;
72087;SDS011;59961;50.232;8.616;2022-07-03T06:54:42;2.60;;;1.60;;
72087;SDS011;59961;50.232;8.616;2022-07-03T06:57:08;5.95;;;1.92;;
72087;SDS011;59961;50.232;8.616;2022-07-03T06:59:34;4.33;;;2.00;;
72087;SDS011;59961;50.232;8.616;2022-07-03T07:01:59;3.37;;;1.90;;
72087;SDS011;59961;50.232;8.616;2022-07-03T07:04:24;3.00;;;1.70;;
72087;SDS011;59961;50.232;8.616;2022-07-03T07:06:49;2.47;;;1.50;;
72087;SDS011;59961;50.232;8.616;2022-07-03T07:09:14;4.03;;;1.60;;
72087;SDS011;59961;50.232;8.616;2022-07-03T07:11:39;3.13;;;1.92;;
72087;SDS011;59961;50.232;8.616;2022-07-03T07:14:04;3.13;;;1.85;;
72087;SDS011;59961;50.232;8.616;2022-07-03T07:16:30;3.95;;;2.03;;
72087;SDS011;59961;50.232;8.616;2022-07-03T07:18:55;5.00;;;1.93;;
72087;SDS011;59961;50.232;8.616;2022-07-03T07:21:20;4.25;;;1.95;;
72087;SDS011;59961;50.232;8.616;2022-07-03T07:23:45;4.87;;;1.93;;
72087;SDS011;59961;50.232;8.616;2022-07-03T07:26:10;3.60;;;2.07;;
72087;SDS011;59961;50.232;8.616;2022-07-03T07:28:36;5.67;;;2.10;;
72087;SDS011;59961;50.232;8.616;2022-07-03T07:31:02;4.60;;;1.90;;
72087;SDS011;59961;50.232;8.616;2022-07-03T07:33:27;3.05;;;1.50;;
72087;SDS011;59961;50.232;8.616;2022-07-03T07:35:53;3.67;;;1.87;;
72087;SDS011;59961;50.232;8.616;2022-07-03T07:38:18;3.50;;;1.73;;
72087;SDS011;59961;50.232;8.616;2022-07-03T07:40:43;4.37;;;1.97;;
72087;SDS011;59961;50.232;8.616;2022-07-03T07:43:08;3.63;;;1.77;;
72087;SDS011;59961;50.232;8.616;2022-07-03T07:45:33;4.00;;;2.50;;
72087;SDS011;59961;50.232;8.616;2022-07-03T07:47:59;4.90;;;2.23;;
72087;SDS011;59961;50.232;8.616;2022-07-03T07:50:24;5.18;;;2.50;;
72087;SDS011;59961;50.232;8.616;2022-07-03T07:52:49;2.60;;;1.60;;
72087;SDS011;59961;50.232;8.616;2022-07-03T07:55:14;5.83;;;1.80;;
72087;SDS011;59961;50.232;8.616;2022-07-03T07:57:40;4.40;;;1.63;;
72087;SDS011;59961;50.232;8.616;2022-07-03T08:00:06;5.80;;;2.03;;
72087;SDS011;59961;50.232;8.616;2022-07-03T08:02:31;6.32;;;1.50;;
72087;SDS011;59961;50.232;8.616;2022-07-03T08:05:15;5.97;;;1.98;;
72087;SDS011;59961;50.232;8.616;2022-07-03T08:07:59;3.25;;;1.70;;
72087;SDS011;59961;50.232;8.616;2022-07-03T08:10:24;3.70;;;1.70;;
72087;SDS011;59961;50.232;8.616;2022-07-03T08:12:49;3.83;;;2.03;;
72087;SDS011;59961;50.232;8.616;2022-07-03T08:15:15;3.17;;;1.60;;
72087;SDS011;59961;50.232;8.616;2022-07-03T08:17:40;3.67;;;2.00;;
72087;SDS011;59961;50.232;8.616;2022-07-03T08:20:05;4.73;;;1.90;;
72087;SDS011;59961;50.232;8.616;2022-07-03T08:22:30;5.03;;;1.90;;
72087;SDS011;59961;50.232;8.616;2022-07-03T08:24:56;3.20;;;1.75;;
72087;SDS011;59961;50.232;8.616;2022-07-03T08:27:21;5.03;;;1.70;;
72087;SDS011;59961;50.232;8.616;2022-07-03T08:29:46;4.60;;;1.50;;
72087;SDS011;59961;50.232;8.616;2022-07-03T08:32:11;2.83;;;1.50;;
72087;SDS011;59961;50.232;8.616;2022-07-03T08:34:36;3.50;;;1.70;;
72087;SDS011;59961;50.232;8.616;2022-07-03T08:37:01;3.10;;;1.50;;
72087;SDS011;59961;50.232;8.616;2022-07-03T08:39:27;4.10;;;1.73;;
72087;SDS011;59961;50.232;8.616;2022-07-03T08:41:52;3.15;;;1.60;;
72087;SDS011;59961;50.232;8.616;2022-07-03T08:44:18;3.33;;;1.73;;
72087;SDS011;59961;50.232;8.616;2022-07-03T08:46:43;3.53;;;1.90;;
72087;SDS011;59961;50.232;8.616;2022-07-03T08:49:09;3.35;;;1.35;;
72087;SDS011;59961;50.232;8.616;2022-07-03T08:51:35;4.13;;;2.03;;
72087;SDS011;59961;50.232;8.616;2022-07-03T08:54:00;3.43;;;1.90;;
72087;SDS011;59961;50.232;8.616;2022-07-03T08:56:26;4.68;;;2.13;;
72087;SDS011;59961;50.232;8.616;2022-07-03T08:58:52;3.47;;;1.90;;
72087;SDS011;59961;50.232;8.616;2022-07-03T09:01:17;5.63;;;1.93;;
72087;SDS011;59961;50.232;8.616;2022-07-03T09:03:42;3.53;;;1.95;;
72087;SDS011;59961;50.232;8.616;2022-07-03T09:06:08;4.20;;;1.80;;
72087;SDS011;59961;50.232;8.616;2022-07-03T09:08:33;2.17;;;1.50;;
72087;SDS011;59961;50.232;8.616;2022-07-03T09:10:59;3.13;;;1.93;;
72087;SDS011;59961;50.232;8.616;2022-07-03T09:13:24;5.18;;;1.77;;
72087;SDS011;59961;50.232;8.616;2022-07-03T09:15:49;3.10;;;1.70;;
72087;SDS011;59961;50.232;8.616;2022-07-03T09:18:14;2.55;;;1.48;;
72087;SDS011;59961;50.232;8.616;2022-07-03T09:20:40;4.00;;;1.60;;
72087;SDS011;59961;50.232;8.616;2022-07-03T09:23:09;3.57;;;1.83;;
72087;SDS011;59961;50.232;8.616;2022-07-03T09:25:35;4.05;;;1.67;;
72087;SDS011;59961;50.232;8.616;2022-07-03T09:28:06;4.50;;;1.77;;
72087;SDS011;59961;50.232;8.616;2022-07-03T09:30:31;11.85;;;1.80;;
72087;SDS011;59961;50.232;8.616;2022-07-03T09:32:56;3.80;;;1.63;;
72087;SDS011;59961;50.232;8.616;2022-07-03T09:35:23;2.57;;;1.40;;
72087;SDS011;59961;50.232;8.616;2022-07-03T09:37:49;3.00;;;1.45;;
72087;SDS011;59961;50.232;8.616;2022-07-03T09:40:14;3.22;;;1.90;;
72087;SDS011;59961;50.232;8.616;2022-07-03T09:42:39;4.00;;;1.70;;
72087;SDS011;59961;50.232;8.616;2022-07-03T09:45:04;2.73;;;1.70;;
72087;SDS011;59961;50.232;8.616;2022-07-03T09:47:30;3.03;;;1.60;;
72087;SDS011;59961;50.232;8.616;2022-07-03T09:49:59;4.67;;;1.80;;
72087;SDS011;59961;50.232;8.616;2022-07-03T09:52:28;4.63;;;1.80;;
72087;SDS011;59961;50.232;8.616;2022-07-03T09:54:54;3.35;;;1.50;;
72087;SDS011;59961;50.232;8.616;2022-07-03T09:57:20;2.70;;;1.37;;
72087;SDS011;59961;50.232;8.616;2022-07-03T09:59:46;2.57;;;1.20;;
72087;SDS011;59961;50.232;8.616;2022-07-03T10:02:12;2.67;;;1.60;;
72087;SDS011;59961;50.232;8.616;2022-07-03T10:04:37;5.88;;;1.92;;
72087;SDS011;59961;50.232;8.616;2022-07-03T10:07:02;3.30;;;1.50;;
72087;SDS011;59961;50.232;8.616;2022-07-03T10:09:29;3.88;;;1.63;;
72087;SDS011;59961;50.232;8.616;2022-07-03T10:11:55;2.63;;;1.50;;
72087;SDS011;59961;50.232;8.616;2022-07-03T10:14:21;2.90;;;1.27;;
72087;SDS011;59961;50.232;8.616;2022-07-03T10:16:47;2.73;;;1.30;;
72087;SDS011;59961;50.232;8.616;2022-07-03T10:19:14;4.13;;;1.73;;
72087;SDS011;59961;50.232;8.616;2022-07-03T10:21:40;3.40;;;1.30;;
72087;SDS011;59961;50.232;8.616;2022-07-03T10:24:06;2.88;;;1.30;;
72087;SDS011;59961;50.232;8.616;2022-07-03T10:26:32;3.90;;;1.00;;
72087;SDS011;59961;50.232;8.616;2022-07-03T10:28:57;1.87;;;1.10;;
72087;SDS011;59961;50.232;8.616;2022-07-03T10:31:24;2.95;;;1.20;;
72087;SDS011;59961;50.232;8.616;2022-07-03T10:33:50;2.75;;;1.00;;
72087;SDS011;59961;50.232;8.616;2022-07-03T10:36:16;4.33;;;0.97;;
72087;SDS011;59961;50.232;8.616;2022-07-03T10:38:42;1.20;;;0.80;;
72087;SDS011;59961;50.232;8.616;2022-07-03T10:43:54;3.50;;;1.40;;
72087;SDS011;59961;50.232;8.616;2022-07-03T10:46:38;2.38;;;1.20;;
72087;SDS011;59961;50.232;8.616;2022-07-03T10:51:31;1.83;;;1.20;;
72087;SDS011;59961;50.232;8.616;2022-07-03T10:54:12;4.22;;;1.20;;
72087;SDS011;59961;50.232;8.616;2022-07-03T10:59:22;4.15;;;1.00;;
72087;SDS011;59961;50.232;8.616;2022-07-03T11:01:47;2.87;;;1.20;;
72087;SDS011;59961;50.232;8.616;2022-07-03T11:04:12;1.50;;;0.90;;
72087;SDS011;59961;50.232;8.616;2022-07-03T11:09:09;3.47;;;1.20;;
72087;SDS011;59961;50.232;8.616;2022-07-03T11:11:41;3.63;;;1.05;;
72087;SDS011;59961;50.232;8.616;2022-07-03T11:14:23;1.33;;;1.02;;
72087;SDS011;59961;50.232;8.616;2022-07-03T11:16:48;2.13;;;0.93;;
72087;SDS011;59961;50.232;8.616;2022-07-03T11:19:14;1.83;;;0.70;;
72087;SDS011;59961;50.232;8.616;2022-07-03T11:21:41;3.33;;;0.95;;
72087;SDS011;59961;50.232;8.616;2022-07-03T11:27:06;5.13;;;1.13;;
72087;SDS011;59961;50.232;8.616;2022-07-03T11:29:36;1.27;;;0.80;;
72087;SDS011;59961;50.232;8.616;2022-07-03T11:32:25;2.40;;;1.05;;
72087;SDS011;59961;50.232;8.616;2022-07-03T11:34:46;1.90;;;0.95;;
72087;SDS011;59961;50.232;8.616;2022-07-03T11:37:11;2.00;;;0.75;;
72087;SDS011;59961;50.232;8.616;2022-07-03T11:39:44;1.73;;;0.83;;
72087;SDS011;59961;50.232;8.616;2022-07-03T11:42:10;1.50;;;0.88;;
72087;SDS011;59961;50.232;8.616;2022-07-03T11:44:35;2.60;;;1.10;;
72087;SDS011;59961;50.232;8.616;2022-07-03T11:47:00;1.77;;;0.80;;
72087;SDS011;59961;50.232;8.616;2022-07-03T11:49:26;1.53;;;0.90;;
72087;SDS011;59961;50.232;8.616;2022-07-03T11:52:02;1.30;;;0.90;;
72087;SDS011;59961;50.232;8.616;2022-07-03T11:54:31;1.80;;;0.80;;
72087;SDS011;59961;50.232;8.616;2022-07-03T11:56:57;1.98;;;1.00;;
72087;SDS011;59961;50.232;8.616;2022-07-03T11:59:22;1.73;;;0.80;;
72087;SDS011;59961;50.232;8.616;2022-07-03T12:01:47;1.80;;;0.97;;
72087;SDS011;59961;50.232;8.616;2022-07-03T12:04:14;1.73;;;1.00;;
72087;SDS011;59961;50.232;8.616;2022-07-03T12:06:43;1.92;;;0.70;;
72087;SDS011;59961;50.232;8.616;2022-07-03T12:09:42;1.92;;;0.90;;
72087;SDS011;59961;50.232;8.616;2022-07-03T12:12:04;1.67;;;0.88;;
72087;SDS011;59961;50.232;8.616;2022-07-03T12:14:48;3.23;;;0.80;;
72087;SDS011;59961;50.232;8.616;2022-07-03T12:17:18;1.40;;;0.80;;
72087;SDS011;59961;50.232;8.616;2022-07-03T12:19:44;1.25;;;0.70;;
72087;SDS011;59961;50.232;8.616;2022-07-03T12:22:10;2.03;;;0.77;;
72087;SDS011;59961;50.232;8.616;2022-07-03T12:24:35;1.43;;;0.80;;
72087;SDS011;59961;50.232;8.616;2022-07-03T12:27:03;1.20;;;0.80;;
72087;SDS011;59961;50.232;8.616;2022-07-03T12:29:29;3.03;;;0.95;;
72087;SDS011;59961;50.232;8.616;2022-07-03T12:31:55;2.00;;;0.80;;
72087;SDS011;59961;50.232;8.616;2022-07-03T12:34:20;1.27;;;0.80;;
72087;SDS011;59961;50.232;8.616;2022-07-03T12:37:06;1.20;;;0.60;;
72087;SDS011;59961;50.232;8.616;2022-07-03T12:39:44;1.95;;;0.98;;
72087;SDS011;59961;50.232;8.616;2022-07-03T12:44:41;1.50;;;0.80;;
72087;SDS011;59961;50.232;8.616;2022-07-03T12:47:06;1.30;;;0.80;;
72087;SDS011;59961;50.232;8.616;2022-07-03T12:49:31;1.70;;;0.80;;
72087;SDS011;59961;50.232;8.616;2022-07-03T12:51:57;2.33;;;0.80;;
72087;SDS011;59961;50.232;8.616;2022-07-03T12:54:31;1.30;;;0.77;;
72087;SDS011;59961;50.232;8.616;2022-07-03T13:00:07;2.88;;;0.93;;
72087;SDS011;59961;50.232;8.616;2022-07-03T13:02:34;1.80;;;0.73;;
72087;SDS011;59961;50.232;8.616;2022-07-03T13:04:59;2.17;;;0.80;;
72087;SDS011;59961;50.232;8.616;2022-07-03T13:07:28;1.75;;;0.90;;
72087;SDS011;59961;50.232;8.616;2022-07-03T13:09:54;1.83;;;1.08;;
72087;SDS011;59961;50.232;8.616;2022-07-03T13:12:22;2.50;;;0.90;;
72087;SDS011;59961;50.232;8.616;2022-07-03T13:14:54;4.43;;;0.80;;
72087;SDS011;59961;50.232;8.616;2022-07-03T13:17:19;1.10;;;0.68;;
72087;SDS011;59961;50.232;8.616;2022-07-03T13:19:44;1.30;;;0.70;;
72087;SDS011;59961;50.232;8.616;2022-07-03T13:22:10;1.30;;;0.85;;
72087;SDS011;59961;50.232;8.616;2022-07-03T13:24:35;1.65;;;1.20;;
72087;SDS011;59961;50.232;8.616;2022-07-03T13:27:00;2.92;;;0.90;;
72087;SDS011;59961;50.232;8.616;2022-07-03T13:29:25;1.73;;;0.87;;
72087;SDS011;59961;50.232;8.616;2022-07-03T13:31:50;1.53;;;1.10;;
72087;SDS011;59961;50.232;8.616;2022-07-03T13:34:15;1.83;;;0.90;;
72087;SDS011;59961;50.232;8.616;2022-07-03T13:36:40;2.43;;;0.77;;
72087;SDS011;59961;50.232;8.616;2022-07-03T13:39:06;7.97;;;1.20;;
72087;SDS011;59961;50.232;8.616;2022-07-03T13:41:33;1.23;;;1.00;;
72087;SDS011;59961;50.232;8.616;2022-07-03T13:43:58;2.33;;;1.00;;
72087;SDS011;59961;50.232;8.616;2022-07-03T13:46:24;1.13;;;0.67;;
72087;SDS011;59961;50.232;8.616;2022-07-03T13:48:49;1.13;;;0.77;;
72087;SDS011;59961;50.232;8.616;2022-07-03T13:51:15;3.47;;;1.08;;
72087;SDS011;59961;50.232;8.616;2022-07-03T13:53:40;2.50;;;0.90;;
72087;SDS011;59961;50.232;8.616;2022-07-03T13:56:05;1.23;;;0.80;;
72087;SDS011;59961;50.232;8.616;2022-07-03T13:58:30;2.60;;;0.80;;
72087;SDS011;59961;50.232;8.616;2022-07-03T14:00:55;1.20;;;0.90;;
72087;SDS011;59961;50.232;8.616;2022-07-03T14:03:20;2.40;;;0.88;;
72087;SDS011;59961;50.232;8.616;2022-07-03T14:05:46;1.47;;;0.70;;
72087;SDS011;59961;50.232;8.616;2022-07-03T14:08:13;3.08;;;0.90;;
72087;SDS011;59961;50.232;8.616;2022-07-03T14:10:38;0.80;;;0.60;;
72087;SDS011;59961;50.232;8.616;2022-07-03T14:13:03;0.80;;;0.70;;
72087;SDS011;59961;50.232;8.616;2022-07-03T14:15:29;1.47;;;0.87;;
72087;SDS011;59961;50.232;8.616;2022-07-03T14:17:54;1.23;;;0.90;;
72087;SDS011;59961;50.232;8.616;2022-07-03T14:20:19;1.77;;;0.90;;
72087;SDS011;59961;50.232;8.616;2022-07-03T14:22:44;0.70;;;0.63;;
72087;SDS011;59961;50.232;8.616;2022-07-03T14:25:10;1.00;;;0.80;;
72087;SDS011;59961;50.232;8.616;2022-07-03T14:27:35;2.03;;;0.80;;
72087;SDS011;59961;50.232;8.616;2022-07-03T14:30:19;3.13;;;0.85;;
72087;SDS011;59961;50.232;8.616;2022-07-03T14:33:03;0.60;;;0.60;;
72087;SDS011;59961;50.232;8.616;2022-07-03T14:35:28;1.17;;;0.67;;
72087;SDS011;59961;50.232;8.616;2022-07-03T14:37:54;1.98;;;0.63;;
72087;SDS011;59961;50.232;8.616;2022-07-03T14:40:19;1.20;;;0.70;;
72087;SDS011;59961;50.232;8.616;2022-07-03T14:42:44;2.85;;;0.90;;
72087;SDS011;59961;50.232;8.616;2022-07-03T14:45:09;2.47;;;1.27;;
72087;SDS011;59961;50.232;8.616;2022-07-03T14:47:35;2.33;;;0.90;;
72087;SDS011;59961;50.232;8.616;2022-07-03T14:50:00;1.48;;;0.63;;
72087;SDS011;59961;50.232;8.616;2022-07-03T14:52:26;1.70;;;0.93;;
72087;SDS011;59961;50.232;8.616;2022-07-03T14:54:51;1.88;;;0.80;;
72087;SDS011;59961;50.232;8.616;2022-07-03T14:57:25;1.65;;;0.70;;
72087;SDS011;59961;50.232;8.616;2022-07-03T15:02:22;2.83;;;0.80;;
72087;SDS011;59961;50.232;8.616;2022-07-03T15:05:02;0.80;;;0.60;;
72087;SDS011;59961;50.232;8.616;2022-07-03T15:07:33;1.55;;;0.80;;
72087;SDS011;59961;50.232;8.616;2022-07-03T15:10:09;1.50;;;0.60;;
72087;SDS011;59961;50.232;8.616;2022-07-03T15:12:42;1.10;;;0.88;;
72087;SDS011;59961;50.232;8.616;2022-07-03T15:15:08;1.47;;;0.77;;
72087;SDS011;59961;50.232;8.616;2022-07-03T15:17:34;2.92;;;1.10;;
72087;SDS011;59961;50.232;8.616;2022-07-03T15:20:00;4.68;;;0.98;;
72087;SDS011;59961;50.232;8.616;2022-07-03T15:22:26;1.65;;;1.00;;
72087;SDS011;59961;50.232;8.616;2022-07-03T15:24:52;6.40;;;0.93;;
72087;SDS011;59961;50.232;8.616;2022-07-03T15:27:21;3.27;;;1.07;;